Terminal Aerodrome Forecast
Issued by NWS Caribou, ME

Home | Current Version | Previous Version | Text Only | Print | Product List | Glossary On
Versions: 1 2 3 4 5 6 7 8 9 10 11 12 13 14 15 16 17 18 19 20 21 22 23 24
880
FTUS41 KCAR 312320
TAFCAR
TAF
KCAR 312320Z 0100/0124 27007KT P6SM VCSH SCT045 BKN090
     FM010600 33006KT P6SM SCT120
     FM011400 05007KT P6SM FEW250
     FM011700 12006KT P6SM SKC=

USA.gov is the U.S. government's official web portal to all federal, state and local government web resources and services.